Terminal Aerodrome Forecast
Issued by NWS

Home | Current Version | Previous Version | Text Only | Print | Product List | Glossary On
Versions: 1 2 3 4 5 6 7 8 9 10 11 12
217
FTUS41 KCAR 232324
TAFHUL
TAF
KHUL 232324Z 2400/2424 31005KT P6SM BKN250
     FM240700 35005KT 4SM BR SCT003
     FM240900 34004KT 1SM BR SCT005
     FM241100 33006KT P6SM BKN060=

USA.gov is the U.S. government's official web portal to all federal, state and local government web resources and services.